createdAt,value
2019-06-26T00:01:53.351Z,12.03
2019-06-26T00:04:25.058Z,13.57
2019-06-26T00:06:56.458Z,14.67
2019-06-26T00:09:27.927Z,27.50
2019-06-26T00:11:59.632Z,17.40
2019-06-26T00:14:31.177Z,19.07
2019-06-26T00:17:04.958Z,13.47
2019-06-26T00:19:36.812Z,14.63
2019-06-26T00:22:08.326Z,17.67
2019-06-26T00:24:39.905Z,15.83
2019-06-26T00:27:14.349Z,14.37
2019-06-26T00:29:46.864Z,14.33
2019-06-26T00:32:18.267Z,20.97
2019-06-26T00:34:50.120Z,15.53
2019-06-26T00:37:21.608Z,16.27
2019-06-26T00:39:53.097Z,18.03
2019-06-26T00:42:24.628Z,16.60
2019-06-26T00:44:56.196Z,16.40
2019-06-26T00:47:30.231Z,17.30
2019-06-26T00:50:01.794Z,18.53
2019-06-26T00:52:33.515Z,20.00
2019-06-26T00:55:06.212Z,21.37
2019-06-26T00:57:37.666Z,25.93
2019-06-26T01:00:10.975Z,53.80
2019-06-26T01:02:42.475Z,51.63
2019-06-26T01:07:58.359Z,87.53
2019-06-26T01:10:29.916Z,36.40
2019-06-26T01:13:02.210Z,21.03
2019-06-26T01:15:34.643Z,18.23
2019-06-26T01:18:06.264Z,15.93
2019-06-26T01:20:38.935Z,17.63
2019-06-26T01:23:10.487Z,14.47
2019-06-26T01:25:42.150Z,15.17
2019-06-26T01:28:13.629Z,15.07
2019-06-26T01:30:45.258Z,16.67
2019-06-26T01:33:16.732Z,26.03
2019-06-26T01:35:48.272Z,62.17
2019-06-26T01:38:19.788Z,61.93
2019-06-26T01:40:51.202Z,90.07
2019-06-26T01:43:22.682Z,90.03
2019-06-26T01:45:54.205Z,75.07
2019-06-26T01:48:25.687Z,70.17
2019-06-26T01:50:57.167Z,69.67
2019-06-26T01:53:28.700Z,83.27
2019-06-26T01:56:00.100Z,93.97
2019-06-26T01:58:31.596Z,86.70
2019-06-26T02:01:03.088Z,71.40
2019-06-26T02:03:34.711Z,57.40
2019-06-26T02:06:06.282Z,64.27
2019-06-26T02:08:38.881Z,71.50
2019-06-26T02:11:10.659Z,82.27
2019-06-26T02:13:42.146Z,75.27
2019-06-26T02:16:13.792Z,65.27
2019-06-26T02:18:52.286Z,63.80
2019-06-26T02:21:23.854Z,96.00
2019-06-26T02:23:56.961Z,103.40
2019-06-26T02:26:28.368Z,36.40
2019-06-26T02:28:59.931Z,33.63
2019-06-26T02:31:31.516Z,34.37
2019-06-26T02:34:03.368Z,28.30
2019-06-26T02:36:34.988Z,20.77
2019-06-26T02:39:08.396Z,25.03
2019-06-26T02:41:51.407Z,32.63
2019-06-26T02:44:22.942Z,27.57
2019-06-26T02:46:54.493Z,52.47
2019-06-26T02:49:26.035Z,74.93
2019-06-26T02:51:57.600Z,123.87
2019-06-26T02:54:47.912Z,88.30
2019-06-26T02:57:19.538Z,79.37
2019-06-26T02:59:51.361Z,57.50
2019-06-26T03:02:23.552Z,86.77
2019-06-26T03:04:55.101Z,95.80
2019-06-26T03:07:26.680Z,38.67
2019-06-26T03:09:58.262Z,72.97
2019-06-26T03:12:29.765Z,77.60
2019-06-26T03:15:08.692Z,105.93
2019-06-26T03:17:34.660Z,92.13
2019-06-26T03:20:06.808Z,52.13
2019-06-26T03:22:38.374Z,69.30
2019-06-26T03:25:10.211Z,45.63
2019-06-26T03:27:41.693Z,19.17
2019-06-26T03:30:13.555Z,19.83
2019-06-26T03:32:44.949Z,27.17
2019-06-26T03:35:16.522Z,41.30
2019-06-26T03:37:48.019Z,70.93
2019-06-26T03:40:19.614Z,74.93
2019-06-26T03:42:51.182Z,65.23
2019-06-26T03:45:26.082Z,64.90
2019-06-26T03:47:56.856Z,52.30
2019-06-26T03:50:28.352Z,60.30
2019-06-26T03:52:59.910Z,45.77
2019-06-26T03:55:31.336Z,42.03
2019-06-26T03:58:03.035Z,19.70
2019-06-26T04:00:59.733Z,22.03
2019-06-26T04:03:31.432Z,15.83
2019-06-26T04:06:03.277Z,14.63
2019-06-26T04:08:34.984Z,14.83
2019-06-26T04:11:06.549Z,20.13
2019-06-26T04:13:38.101Z,19.07
2019-06-26T04:16:09.603Z,18.77
2019-06-26T04:18:41.435Z,21.87
2019-06-26T04:21:12.920Z,17.90
2019-06-26T04:23:44.435Z,17.87
2019-06-26T04:26:15.986Z,16.23
2019-06-26T04:28:47.709Z,17.13
2019-06-26T04:31:20.301Z,21.80
2019-06-26T04:33:52.687Z,22.30
2019-06-26T04:36:24.169Z,15.83
2019-06-26T04:38:56.762Z,18.63
2019-06-26T04:41:28.403Z,16.03
2019-06-26T04:44:00.004Z,29.13
2019-06-26T04:46:31.431Z,16.27
2019-06-26T04:49:04.422Z,16.23
2019-06-26T04:51:36.793Z,13.33
2019-06-26T04:54:08.299Z,22.50
2019-06-26T04:56:39.794Z,15.97
2019-06-26T04:59:11.419Z,17.25
2019-06-26T05:01:42.913Z,23.17
2019-06-26T05:04:14.515Z,18.40
2019-06-26T05:06:46.019Z,18.13
2019-06-26T05:09:17.635Z,20.90
2019-06-26T05:11:49.389Z,16.93
2019-06-26T05:14:32.262Z,22.07
2019-06-26T05:17:03.837Z,18.03
2019-06-26T05:19:36.465Z,24.07
2019-06-26T05:22:08.004Z,20.80
2019-06-26T05:24:39.629Z,18.07
2019-06-26T05:27:11.412Z,18.30
2019-06-26T05:29:42.939Z,24.90
2019-06-26T05:38:16.742Z,17.63
2019-06-26T05:40:49.709Z,14.87
2019-06-26T05:43:21.314Z,14.50
2019-06-26T05:45:52.819Z,16.30
2019-06-26T05:48:24.287Z,15.43
2019-06-26T05:50:56.626Z,14.97
2019-06-26T05:53:28.658Z,19.43
2019-06-26T05:56:00.101Z,29.33
2019-06-26T05:58:31.686Z,15.60
2019-06-26T06:01:03.228Z,21.70
2019-06-26T06:03:34.825Z,12.57
2019-06-26T06:06:06.365Z,10.60
2019-06-26T06:08:37.986Z,12.73
2019-06-26T06:11:09.413Z,14.10
2019-06-26T06:13:41.891Z,18.60
2019-06-26T06:16:13.669Z,25.37
2019-06-26T06:18:45.251Z,11.53
2019-06-26T06:21:16.738Z,20.40
2019-06-26T06:23:48.271Z,11.83
2019-06-26T06:26:19.738Z,14.83
2019-06-26T06:28:51.286Z,12.33
2019-06-26T06:31:23.293Z,13.73
2019-06-26T06:33:54.840Z,13.97
2019-06-26T06:36:26.328Z,12.43
2019-06-26T06:38:58.241Z,15.27
2019-06-26T06:41:29.722Z,11.37
2019-06-26T06:44:01.492Z,15.77
2019-06-26T06:46:33.037Z,10.47
2019-06-26T06:49:04.674Z,11.80
2019-06-26T06:51:36.289Z,18.73
2019-06-26T06:54:08.135Z,18.67
2019-06-26T06:56:39.620Z,36.53
2019-06-26T06:59:11.637Z,36.10
2019-06-26T07:01:43.081Z,20.60
2019-06-26T07:04:14.639Z,12.97
2019-06-26T07:06:46.116Z,16.63
2019-06-26T07:09:17.857Z,25.67
2019-06-26T07:11:49.252Z,13.90
2019-06-26T07:16:57.025Z,13.37
2019-06-26T07:19:28.578Z,11.53
2019-06-26T07:22:13.702Z,11.83
2019-06-26T07:31:18.766Z,16.30
2019-06-26T07:33:50.254Z,17.33
2019-06-26T07:36:22.708Z,21.63
2019-06-26T07:38:54.183Z,24.50
2019-06-26T07:41:37.897Z,13.53
2019-06-26T07:44:17.720Z,13.57
2019-06-26T07:46:51.587Z,33.00
2019-06-26T07:49:23.057Z,32.90
2019-06-26T07:51:58.769Z,41.93
2019-06-26T07:54:30.539Z,47.33
2019-06-26T07:57:02.260Z,49.90
2019-06-26T07:59:33.823Z,28.00
2019-06-26T08:02:05.665Z,29.20
2019-06-26T08:04:37.639Z,42.00
2019-06-26T08:07:10.089Z,22.40
2019-06-26T08:09:43.058Z,43.00
2019-06-26T08:12:15.150Z,55.27
2019-06-26T08:14:52.404Z,37.50
2019-06-26T08:17:27.284Z,31.67
2019-06-26T08:19:59.050Z,14.77
2019-06-26T08:22:30.534Z,22.40
2019-06-26T08:25:02.109Z,25.03
2019-06-26T08:27:34.653Z,19.27
2019-06-26T08:30:06.869Z,26.57
2019-06-26T08:32:39.372Z,24.23
2019-06-26T08:35:12.630Z,23.20
2019-06-26T08:37:44.218Z,33.57
2019-06-26T08:40:17.000Z,24.37
2019-06-26T08:42:48.469Z,46.47
2019-06-26T08:45:20.628Z,41.07
2019-06-26T08:47:52.249Z,22.87
2019-06-26T08:57:25.080Z,31.50
2019-06-26T08:59:56.714Z,22.63
2019-06-26T09:02:31.124Z,26.90
2019-06-26T09:05:03.726Z,58.47
2019-06-26T09:07:35.336Z,29.83
2019-06-26T09:53:57.833Z,8.43
2019-06-26T09:56:29.441Z,15.67
2019-06-26T09:59:01.179Z,19.27
2019-06-26T10:01:33.824Z,12.23
2019-06-26T10:04:05.474Z,25.80
2019-06-26T10:06:37.127Z,13.83
2019-06-26T10:09:09.621Z,51.03
2019-06-26T10:11:41.214Z,25.00
2019-06-26T10:14:12.782Z,9.20
2019-06-26T10:16:46.076Z,27.30
2019-06-26T10:19:17.515Z,9.97
2019-06-26T10:21:49.084Z,12.03
2019-06-26T10:24:21.538Z,13.03
2019-06-26T10:26:53.019Z,27.17
2019-06-26T10:29:24.570Z,12.33
2019-06-26T10:31:56.057Z,8.93
2019-06-26T10:34:27.749Z,9.73
2019-06-26T10:36:59.237Z,14.00
2019-06-26T10:39:41.417Z,15.33
2019-06-26T10:42:12.911Z,15.70
2019-06-26T10:44:44.349Z,10.13
2019-06-26T10:47:15.883Z,8.57
2019-06-26T10:49:47.508Z,12.80
2019-06-26T10:52:19.479Z,11.10
2019-06-26T10:54:52.717Z,6.57
2019-06-26T10:57:24.222Z,10.23
2019-06-26T10:59:56.089Z,12.40
2019-06-26T11:02:27.860Z,10.50
2019-06-26T11:04:59.502Z,20.30
2019-06-26T11:07:36.490Z,17.20
2019-06-26T11:10:07.935Z,13.03
2019-06-26T11:12:39.430Z,8.20
2019-06-26T11:15:13.674Z,6.43
2019-06-26T11:17:45.459Z,10.13
2019-06-26T11:20:18.433Z,14.90
2019-06-26T11:22:52.214Z,10.43
2019-06-26T11:25:24.361Z,8.70
2019-06-26T11:27:56.473Z,11.47
2019-06-26T11:30:28.331Z,15.50
2019-06-26T11:33:00.752Z,16.23
2019-06-26T11:35:32.559Z,20.10
2019-06-26T11:38:06.609Z,12.00
2019-06-26T11:40:39.686Z,11.97
2019-06-26T11:43:11.344Z,11.57
2019-06-26T11:45:43.118Z,13.30
2019-06-26T11:48:14.928Z,16.83
2019-06-26T11:50:47.670Z,9.53
2019-06-26T11:53:19.260Z,13.07
2019-06-26T11:55:50.936Z,11.13
2019-06-26T11:58:22.410Z,8.13
2019-06-26T12:00:54.118Z,7.70
2019-06-26T12:03:27.660Z,9.37
2019-06-26T12:06:15.222Z,27.13
2019-06-26T12:08:33.063Z,9.07
2019-06-26T12:11:05.507Z,26.77
2019-06-26T12:13:37.978Z,9.07
2019-06-26T12:16:30.460Z,18.40
2019-06-26T12:19:01.957Z,15.87
2019-06-26T12:21:49.269Z,9.50
2019-06-26T12:24:20.801Z,15.17
2019-06-26T12:26:53.098Z,10.43
2019-06-26T12:29:24.834Z,10.87
2019-06-26T12:31:56.381Z,13.07
2019-06-26T12:34:27.977Z,9.10
2019-06-26T12:36:59.623Z,13.67
2019-06-26T12:39:31.358Z,16.53
2019-06-26T12:42:02.960Z,20.30
2019-06-26T12:44:35.547Z,12.87
2019-06-26T12:47:07.995Z,8.77
2019-06-26T12:49:39.506Z,14.93
2019-06-26T12:52:11.164Z,6.97
2019-06-26T12:54:43.640Z,7.97
2019-06-26T12:57:15.277Z,10.70
2019-06-26T12:59:57.126Z,17.30
2019-06-26T13:02:20.390Z,9.47
2019-06-26T13:04:51.957Z,14.20
2019-06-26T13:07:42.147Z,8.83
2019-06-26T13:10:18.240Z,11.93
2019-06-26T13:12:49.788Z,11.83
2019-06-26T13:15:21.768Z,9.67
2019-06-26T13:17:54.224Z,17.07
2019-06-26T13:20:25.904Z,11.93
2019-06-26T13:22:57.502Z,20.50
2019-06-26T13:25:29.389Z,15.53
2019-06-26T13:28:00.907Z,10.00
2019-06-26T13:30:39.703Z,11.87
2019-06-26T13:33:11.921Z,5.57
2019-06-26T13:35:43.760Z,14.13
2019-06-26T13:38:27.006Z,15.77
2019-06-26T13:40:58.841Z,9.53
2019-06-26T13:43:31.942Z,7.60
2019-06-26T13:46:06.786Z,5.27
2019-06-26T13:48:46.581Z,10.07
2019-06-26T13:51:21.754Z,22.83
2019-06-26T13:53:56.309Z,13.73
2019-06-26T13:56:32.781Z,10.10
2019-06-26T13:59:07.979Z,12.53
2019-06-26T14:01:42.663Z,7.50
2019-06-26T14:04:15.889Z,9.30
2019-06-26T14:06:47.476Z,9.17
2019-06-26T14:09:23.165Z,11.83
2019-06-26T14:12:14.063Z,10.40
2019-06-26T14:18:05.485Z,10.13
2019-06-26T14:20:50.428Z,13.83
2019-06-26T14:23:22.643Z,7.97
2019-06-26T14:26:01.733Z,13.57
2019-06-26T14:28:34.383Z,15.53
2019-06-26T14:31:05.982Z,19.73
2019-06-26T14:33:40.925Z,7.00
2019-06-26T14:36:24.208Z,16.53
2019-06-26T14:38:55.702Z,14.37
2019-06-26T14:41:27.074Z,10.33
2019-06-26T14:44:01.113Z,11.17
2019-06-26T14:46:33.721Z,13.97
2019-06-26T14:49:06.285Z,16.70
2019-06-26T14:51:46.752Z,12.63
2019-06-26T14:54:11.364Z,7.00
2019-06-26T14:56:42.757Z,14.30
2019-06-26T14:59:15.985Z,9.43
2019-06-26T15:01:47.513Z,13.10
2019-06-26T15:04:19.164Z,8.10
2019-06-26T15:06:50.656Z,15.00
2019-06-26T15:09:22.804Z,18.07
2019-06-26T15:11:54.362Z,12.90
2019-06-26T15:14:27.877Z,20.27
2019-06-26T15:16:59.506Z,10.10
2019-06-26T15:19:30.958Z,8.67
2019-06-26T15:22:02.978Z,12.47
2019-06-26T15:28:27.541Z,12.90
2019-06-26T15:50:21.692Z,16.63
2019-06-26T16:10:51.889Z,17.20
2019-06-26T16:19:20.861Z,13.43
2019-06-26T16:22:01.291Z,18.27
2019-06-26T16:30:41.456Z,30.27
2019-06-26T16:43:09.671Z,15.73
2019-06-26T16:45:41.361Z,12.93
2019-06-26T16:48:13.954Z,10.10
2019-06-26T16:50:46.257Z,12.03
2019-06-26T16:53:19.336Z,10.73
2019-06-26T16:55:51.725Z,4.87
2019-06-26T16:58:25.968Z,10.97
2019-06-26T17:00:57.548Z,9.57
2019-06-26T17:03:29.233Z,22.33
2019-06-26T17:06:00.847Z,26.80
2019-06-26T17:08:33.185Z,9.80
2019-06-26T17:11:04.773Z,7.97
2019-06-26T17:13:36.782Z,17.33
2019-06-26T17:16:08.460Z,9.13
2019-06-26T17:18:40.904Z,16.50
2019-06-26T17:21:12.501Z,10.60
2019-06-26T17:23:44.053Z,20.47
2019-06-26T17:26:16.624Z,15.03
2019-06-26T17:28:49.694Z,13.37
2019-06-26T17:31:22.707Z,18.27
2019-06-26T17:33:54.245Z,12.43
2019-06-26T17:36:28.786Z,13.97
2019-06-26T17:39:03.986Z,27.40
2019-06-26T17:41:39.435Z,19.23
2019-06-26T17:44:10.928Z,15.50
2019-06-26T17:46:42.491Z,10.10
2019-06-26T17:49:14.152Z,16.67
2019-06-26T17:51:46.185Z,10.73
2019-06-26T17:54:20.069Z,26.93
2019-06-26T17:56:51.645Z,40.23
2019-06-26T17:59:23.161Z,32.97
2019-06-26T18:02:00.940Z,23.03
2019-06-26T18:04:34.138Z,21.40
2019-06-26T18:07:06.568Z,40.43
2019-06-26T18:09:38.307Z,22.10
2019-06-26T18:12:10.031Z,16.73
2019-06-26T18:14:43.363Z,24.00
2019-06-26T18:17:22.170Z,34.37
2019-06-26T18:19:47.855Z,49.47
2019-06-26T18:22:19.468Z,39.70
2019-06-26T18:24:51.029Z,26.37
2019-06-26T18:27:22.774Z,15.40
2019-06-26T18:29:54.348Z,13.00
2019-06-26T18:32:28.912Z,8.67
2019-06-26T18:35:00.300Z,17.63
2019-06-26T18:37:33.690Z,11.20
2019-06-26T18:40:05.868Z,13.03
2019-06-26T18:42:37.480Z,13.00
2019-06-26T18:45:09.080Z,17.33
2019-06-26T18:47:40.901Z,16.33
2019-06-26T18:50:14.102Z,20.10
2019-06-26T18:52:45.905Z,28.10
2019-06-26T18:55:17.856Z,36.93
2019-06-26T18:57:49.493Z,55.87
2019-06-26T19:00:21.230Z,62.47
2019-06-26T19:02:53.660Z,48.17
2019-06-26T19:05:25.754Z,44.50
2019-06-26T19:07:57.434Z,52.40
2019-06-26T19:10:29.030Z,71.93
2019-06-26T19:13:01.104Z,45.27
2019-06-26T19:15:32.580Z,45.50
2019-06-26T19:18:04.129Z,38.67
2019-06-26T19:20:36.074Z,72.33
2019-06-26T19:23:07.567Z,37.23
2019-06-26T19:25:39.085Z,28.80
2019-06-26T19:28:11.853Z,25.50
2019-06-26T19:30:43.275Z,55.40
2019-06-26T19:33:15.032Z,81.57
2019-06-26T19:35:46.600Z,59.30
2019-06-26T19:38:18.170Z,60.37
2019-06-26T19:40:50.320Z,87.60
2019-06-26T19:43:22.157Z,30.17
2019-06-26T19:45:53.789Z,37.67
2019-06-26T19:48:25.707Z,62.23
2019-06-26T19:50:57.516Z,45.67
2019-06-26T19:53:30.241Z,20.90
2019-06-26T19:56:01.839Z,56.90
2019-06-26T19:58:34.086Z,62.97
2019-06-26T20:01:06.946Z,56.30
2019-06-26T20:03:38.617Z,59.57
2019-06-26T20:06:10.122Z,77.60
2019-06-26T20:08:53.288Z,56.90
2019-06-26T20:11:16.583Z,68.60
2019-06-26T20:13:48.201Z,69.70
2019-06-26T20:16:19.935Z,69.20
2019-06-26T20:18:52.977Z,28.17
2019-06-26T20:21:24.908Z,45.07
2019-06-26T20:23:57.522Z,52.47
2019-06-26T20:26:29.495Z,54.23
2019-06-26T20:29:01.492Z,92.07
2019-06-26T20:31:34.641Z,71.60
2019-06-26T20:34:07.400Z,59.17
2019-06-26T20:36:40.106Z,40.73
2019-06-26T20:39:12.368Z,29.20
2019-06-26T20:41:44.323Z,32.63
2019-06-26T20:44:16.082Z,28.90
2019-06-26T20:46:47.899Z,17.97
2019-06-26T20:49:19.736Z,73.17
2019-06-26T20:51:51.428Z,69.50
2019-06-26T20:54:23.101Z,62.03
2019-06-26T20:56:54.690Z,69.70
2019-06-26T20:59:26.430Z,77.97
2019-06-26T21:01:57.948Z,94.20
2019-06-26T21:04:30.580Z,30.73
2019-06-26T21:07:02.156Z,25.47
2019-06-26T21:09:44.848Z,14.43
2019-06-26T21:12:16.409Z,15.17
2019-06-26T21:14:48.822Z,16.17
2019-06-26T21:17:20.347Z,14.77
2019-06-26T21:19:53.267Z,12.67
2019-06-26T21:22:26.250Z,14.63
2019-06-26T21:24:58.126Z,15.67
2019-06-26T21:27:32.324Z,12.07
2019-06-26T21:30:03.335Z,13.40
2019-06-26T21:32:35.691Z,10.97
2019-06-26T21:35:07.254Z,11.63
2019-06-26T21:37:39.002Z,17.30
2019-06-26T21:40:10.670Z,15.27
2019-06-26T21:42:42.541Z,12.07
2019-06-26T21:45:14.793Z,26.40
2019-06-26T21:47:46.216Z,8.10
2019-06-26T21:50:17.684Z,10.23
2019-06-26T21:52:49.468Z,9.50
2019-06-26T21:55:33.930Z,9.90
2019-06-26T21:58:13.404Z,10.57
2019-06-26T22:01:02.868Z,11.00
2019-06-26T22:03:52.849Z,9.57
2019-06-26T22:06:32.861Z,8.40
2019-06-26T22:09:15.226Z,13.03
2019-06-26T22:11:47.183Z,7.43
2019-06-26T22:14:21.256Z,7.77
2019-06-26T22:16:53.449Z,10.13
2019-06-26T22:19:24.918Z,9.30
2019-06-26T22:21:56.542Z,8.87
2019-06-26T22:24:28.402Z,7.93
2019-06-26T22:27:03.510Z,11.00
2019-06-26T22:29:35.232Z,7.90
2019-06-26T22:32:06.727Z,8.40
2019-06-26T22:34:38.248Z,7.77
2019-06-26T22:37:29.469Z,5.87
2019-06-26T22:40:03.965Z,16.80
2019-06-26T22:42:35.479Z,15.87
2019-06-26T22:45:08.237Z,9.03
2019-06-26T22:47:39.709Z,12.07
2019-06-26T22:50:11.325Z,7.80
2019-06-26T22:52:42.778Z,8.60
2019-06-26T22:55:14.685Z,7.77
2019-06-26T22:57:46.060Z,7.60
2019-06-26T23:00:18.825Z,9.47
2019-06-26T23:03:00.224Z,8.23
2019-06-26T23:05:31.646Z,10.10
2019-06-26T23:08:04.340Z,6.67
2019-06-26T23:10:35.794Z,6.10
2019-06-26T23:13:09.655Z,8.47
2019-06-26T23:15:41.418Z,7.40
2019-06-26T23:18:14.018Z,7.07
2019-06-26T23:20:45.474Z,8.40
2019-06-26T23:23:16.933Z,8.53
2019-06-26T23:25:48.467Z,6.57
2019-06-26T23:28:19.918Z,9.00
2019-06-26T23:30:51.470Z,7.83
2019-06-26T23:33:23.138Z,6.87
2019-06-26T23:35:54.555Z,7.43
2019-06-26T23:38:27.403Z,7.73
2019-06-26T23:40:59.252Z,6.40
2019-06-26T23:43:30.821Z,7.23
2019-06-26T23:46:03.431Z,9.43
2019-06-26T23:48:36.749Z,7.87
2019-06-26T23:51:20.815Z,17.13
2019-06-26T23:53:52.244Z,14.03
2019-06-26T23:56:36.443Z,8.40
2019-06-26T23:58:57.318Z,8.87
